createdAt,value
2018-12-14T00:01:43.543Z,91.73
2018-12-14T00:04:18.517Z,91.83
2018-12-14T00:06:51.691Z,91.48
2018-12-14T00:09:26.154Z,91.60
2018-12-14T00:12:00.245Z,91.78
2018-12-14T00:14:35.296Z,91.80
2018-12-14T00:17:10.279Z,91.97
2018-12-14T00:19:45.011Z,91.69
2018-12-14T00:22:20.147Z,91.52
2018-12-14T00:24:54.057Z,91.79
2018-12-14T00:27:29.055Z,91.88
2018-12-14T00:30:09.128Z,92.36
2018-12-14T00:32:43.714Z,92.10
2018-12-14T00:35:20.996Z,91.99
2018-12-14T00:37:52.361Z,92.15
2018-12-14T00:40:27.522Z,92.09
2018-12-14T00:43:02.564Z,92.72
2018-12-14T00:45:39.674Z,92.46
2018-12-14T00:48:14.298Z,92.82
2018-12-14T00:50:53.735Z,92.77
2018-12-14T00:53:31.345Z,93.19
2018-12-14T00:56:09.176Z,92.78
2018-12-14T00:58:44.344Z,92.71
2018-12-14T01:01:23.887Z,92.85
2018-12-14T01:03:55.140Z,93.21
2018-12-14T01:06:30.368Z,93.13
2018-12-14T01:09:05.304Z,92.84
2018-12-14T01:11:40.185Z,93.07
2018-12-14T01:14:21.523Z,93.10
2018-12-14T01:16:56.847Z,93.22
2018-12-14T01:19:32.921Z,93.20
2018-12-14T01:24:56.328Z,93.18
2018-12-14T01:27:33.531Z,92.94
2018-12-14T01:30:06.916Z,93.29
2018-12-14T01:32:44.505Z,93.11
2018-12-14T01:35:19.799Z,93.72
2018-12-14T01:37:55.035Z,93.42
2018-12-14T01:40:29.974Z,93.61
2018-12-14T01:43:04.970Z,94.02
2018-12-14T01:45:38.734Z,94.21
2018-12-14T01:48:13.808Z,93.69
2018-12-14T01:50:48.721Z,93.70
2018-12-14T01:53:23.493Z,94.20
2018-12-14T01:56:03.039Z,94.10
2018-12-14T01:58:45.061Z,94.13
2018-12-14T02:03:53.660Z,94.07
2018-12-14T02:06:29.368Z,93.62
2018-12-14T02:09:08.715Z,93.63
2018-12-14T02:11:44.095Z,94.13
2018-12-14T02:14:18.887Z,93.88
2018-12-14T02:16:53.897Z,94.09
2018-12-14T02:19:30.933Z,93.59
2018-12-14T02:22:05.733Z,93.55
2018-12-14T02:24:40.943Z,93.50
2018-12-14T02:27:17.740Z,93.31
2018-12-14T02:29:51.059Z,93.14
2018-12-14T02:32:25.953Z,92.33
2018-12-14T02:35:05.411Z,91.52
2018-12-14T02:37:40.559Z,91.13
2018-12-14T02:40:15.267Z,90.00
2018-12-14T02:42:50.063Z,88.65
2018-12-14T02:45:24.112Z,86.65
2018-12-14T02:47:58.966Z,84.17
2018-12-14T02:50:34.101Z,82.80
2018-12-14T02:53:11.007Z,83.56
2018-12-14T02:55:46.039Z,83.09
2018-12-14T02:58:21.002Z,83.14
2018-12-14T03:00:56.136Z,84.48
2018-12-14T03:03:29.194Z,84.70
2018-12-14T03:06:03.074Z,85.61
2018-12-14T03:08:38.035Z,85.86
2018-12-14T03:11:13.055Z,86.20
2018-12-14T03:13:47.917Z,86.76
2018-12-14T03:16:22.848Z,86.32
2018-12-14T03:18:57.680Z,83.83
2018-12-14T03:21:34.689Z,84.00
2018-12-14T03:24:11.468Z,83.78
2018-12-14T03:26:46.585Z,83.87
2018-12-14T03:29:21.701Z,83.65
2018-12-14T03:31:57.582Z,82.97
2018-12-14T03:34:33.347Z,84.30
2018-12-14T03:37:11.207Z,86.20
2018-12-14T03:39:51.310Z,87.04
2018-12-14T03:42:33.972Z,88.16
2018-12-14T03:45:02.235Z,88.27
2018-12-14T03:47:33.470Z,87.96
2018-12-14T03:50:05.465Z,88.78
2018-12-14T03:52:37.139Z,88.47
2018-12-14T03:55:10.280Z,88.42
2018-12-14T03:57:43.267Z,87.56
2018-12-14T04:00:14.312Z,86.40
2018-12-14T04:02:48.225Z,85.93
2018-12-14T04:05:19.752Z,85.62
2018-12-14T04:07:51.290Z,85.34
2018-12-14T04:10:28.965Z,84.76
2018-12-14T04:13:03.365Z,84.62
2018-12-14T04:15:34.901Z,84.11
2018-12-14T04:18:08.886Z,82.93
2018-12-14T04:20:42.638Z,82.44
2018-12-14T04:23:17.271Z,83.00
2018-12-14T04:25:48.780Z,82.18
2018-12-14T04:28:21.724Z,78.56
2018-12-14T04:30:54.790Z,78.67
2018-12-14T04:33:28.179Z,82.01
2018-12-14T04:35:59.241Z,84.22
2018-12-14T04:38:32.532Z,82.62
2018-12-14T04:41:03.905Z,83.32
2018-12-14T04:43:37.473Z,83.88
2018-12-14T04:46:08.707Z,85.52
2018-12-14T04:48:41.917Z,86.19
2018-12-14T04:51:13.306Z,86.29
2018-12-14T04:53:46.594Z,85.93
2018-12-14T04:56:19.603Z,84.99
2018-12-14T04:58:53.482Z,82.94
2018-12-14T05:01:24.239Z,82.73
2018-12-14T05:03:57.645Z,82.48
2018-12-14T05:06:29.265Z,82.77
2018-12-14T05:09:03.700Z,82.31
2018-12-14T05:11:35.131Z,83.23
2018-12-14T05:14:08.201Z,84.27
2018-12-14T05:16:41.201Z,84.13
2018-12-14T05:19:12.726Z,84.06
2018-12-14T05:21:46.272Z,84.61
2018-12-14T05:24:17.419Z,84.67
2018-12-14T05:26:48.708Z,84.98
2018-12-14T05:29:22.079Z,84.53
2018-12-14T05:31:55.240Z,85.06
2018-12-14T05:34:26.763Z,85.26
2018-12-14T05:37:00.238Z,84.69
2018-12-14T05:39:33.369Z,84.48
2018-12-14T05:42:06.534Z,84.14
2018-12-14T05:44:40.468Z,83.17
2018-12-14T05:47:11.750Z,83.72
2018-12-14T05:49:45.105Z,81.46
2018-12-14T05:52:18.009Z,81.12
2018-12-14T05:54:52.927Z,81.41
2018-12-14T05:57:25.964Z,81.44
2018-12-14T05:59:58.916Z,81.92
2018-12-14T06:02:30.287Z,81.85
2018-12-14T06:05:03.849Z,82.94
2018-12-14T06:07:34.990Z,83.82
2018-12-14T06:10:09.946Z,84.87
2018-12-14T06:12:43.766Z,84.92
2018-12-14T06:15:15.138Z,85.71
2018-12-14T06:17:48.404Z,86.47
2018-12-14T06:20:21.549Z,86.29
2018-12-14T06:22:57.367Z,86.42
2018-12-14T06:25:29.071Z,86.46
2018-12-14T06:28:00.039Z,86.48
2018-12-14T06:30:33.116Z,86.49
2018-12-14T06:33:04.725Z,86.97
2018-12-14T06:35:35.806Z,87.04
2018-12-14T06:38:07.064Z,86.68
2018-12-14T06:40:38.593Z,87.12
2018-12-14T06:43:15.436Z,87.30
2018-12-14T06:45:46.063Z,87.33
2018-12-14T06:48:17.478Z,87.53
2018-12-14T06:50:51.454Z,87.79
2018-12-14T06:53:22.943Z,87.57
2018-12-14T06:55:56.424Z,87.64
2018-12-14T06:58:30.110Z,87.79
2018-12-14T07:01:03.270Z,88.38
2018-12-14T07:03:34.514Z,88.17
2018-12-14T07:06:05.835Z,87.89
2018-12-14T07:08:40.036Z,88.04
2018-12-14T07:11:15.107Z,87.88
2018-12-14T07:13:46.860Z,88.23
2018-12-14T07:16:20.270Z,87.83
2018-12-14T07:18:54.135Z,87.73
2018-12-14T07:21:25.781Z,87.91
2018-12-14T07:23:59.116Z,88.12
2018-12-14T07:26:30.960Z,88.14
2018-12-14T07:29:02.629Z,87.79
2018-12-14T07:31:33.528Z,87.72
2018-12-14T07:34:06.665Z,87.90
2018-12-14T07:36:42.679Z,87.87
2018-12-14T07:39:14.543Z,87.59
2018-12-14T07:41:46.336Z,87.73
2018-12-14T07:44:20.121Z,87.84
2018-12-14T07:46:55.993Z,87.88
2018-12-14T07:49:27.772Z,87.15
2018-12-14T07:52:01.685Z,86.27
2018-12-14T07:54:35.076Z,86.14
2018-12-14T07:57:06.470Z,84.64
2018-12-14T07:59:39.897Z,82.48
2018-12-14T08:02:11.871Z,80.32
2018-12-14T08:04:45.704Z,79.43
2018-12-14T08:07:19.232Z,78.81
2018-12-14T08:09:52.571Z,78.14
2018-12-14T08:12:24.400Z,77.92
2018-12-14T08:14:57.682Z,77.47
2018-12-14T08:17:29.024Z,77.39
2018-12-14T08:25:04.442Z,79.07
2018-12-14T08:27:38.254Z,80.05
2018-12-14T08:35:17.198Z,80.89
2018-12-14T08:37:51.042Z,81.34
2018-12-14T08:40:24.854Z,79.82
2018-12-14T08:42:58.745Z,80.33
2018-12-14T08:45:30.746Z,79.35
2018-12-14T08:48:03.469Z,79.41
2018-12-14T08:50:37.310Z,78.64
2018-12-14T08:53:11.320Z,78.50
2018-12-14T08:55:47.749Z,78.79
2018-12-14T08:58:20.022Z,78.81
2018-12-14T09:00:52.840Z,79.54
2018-12-14T09:03:37.235Z,80.29
2018-12-14T09:06:21.278Z,79.88
2018-12-14T11:03:14.203Z,71.82
2018-12-14T11:05:45.468Z,72.26
2018-12-14T11:08:20.872Z,71.06
2018-12-14T11:10:52.630Z,71.48
2018-12-14T11:13:26.211Z,70.36
2018-12-14T11:16:01.853Z,69.01
2018-12-14T11:18:33.486Z,68.89
2018-12-14T11:21:06.901Z,68.27
2018-12-14T11:23:38.716Z,67.29
2018-12-14T11:26:11.847Z,68.00
2018-12-14T11:28:48.180Z,67.16
2018-12-14T11:31:19.442Z,66.82
2018-12-14T11:33:55.208Z,67.90
2018-12-14T11:36:26.505Z,66.87
2018-12-14T11:39:00.264Z,67.65
2018-12-14T11:41:32.304Z,67.96
2018-12-14T11:44:04.410Z,68.21
2018-12-14T11:46:39.784Z,67.58
2018-12-14T11:49:12.974Z,67.56
2018-12-14T11:51:44.707Z,68.12
2018-12-14T11:54:17.501Z,68.63
2018-12-14T11:56:49.199Z,68.65
2018-12-14T11:59:24.701Z,68.44
2018-12-14T12:01:56.748Z,68.77
2018-12-14T12:04:30.541Z,68.19
2018-12-14T12:07:01.928Z,68.63
2018-12-14T12:09:36.525Z,67.73
2018-12-14T12:12:10.476Z,68.58
2018-12-14T12:14:44.142Z,67.78
2018-12-14T12:17:15.570Z,67.40
2018-12-14T12:19:49.233Z,68.09
2018-12-14T12:22:21.378Z,67.87
2018-12-14T12:25:06.366Z,68.21
2018-12-14T12:27:38.156Z,67.39
2018-12-14T12:30:09.707Z,68.55
2018-12-14T12:32:48.197Z,68.76
2018-12-14T12:35:19.956Z,68.25
2018-12-14T12:37:51.835Z,68.32
2018-12-14T12:40:24.920Z,67.62
2018-12-14T12:43:10.539Z,68.32
2018-12-14T12:45:41.559Z,68.18
2018-12-14T12:48:14.869Z,67.29
2018-12-14T12:50:49.850Z,67.76
2018-12-14T12:53:24.965Z,67.86
2018-12-14T12:56:00.023Z,69.30
2018-12-14T12:58:33.475Z,69.35
2018-12-14T13:01:09.546Z,69.27
2018-12-14T13:03:41.480Z,67.39
2018-12-14T13:06:13.278Z,68.17
2018-12-14T13:08:44.984Z,69.02
2018-12-14T13:11:18.520Z,69.56
2018-12-14T13:13:54.356Z,69.12
2018-12-14T13:16:31.989Z,70.10
2018-12-14T13:19:07.612Z,70.34
2018-12-14T13:21:40.648Z,70.37
2018-12-14T13:24:12.760Z,69.84
2018-12-14T13:26:46.557Z,68.98
2018-12-14T13:29:22.929Z,69.83
2018-12-14T13:32:05.227Z,69.62
2018-12-14T13:34:38.941Z,69.36
2018-12-14T13:37:13.703Z,69.21
2018-12-14T13:39:45.794Z,69.32
2018-12-14T13:42:21.603Z,70.00
2018-12-14T13:44:57.823Z,70.69
2018-12-14T13:47:31.719Z,70.45
2018-12-14T13:50:05.971Z,70.46
2018-12-14T13:52:39.783Z,69.34
2018-12-14T13:55:14.317Z,69.16
2018-12-14T13:57:45.668Z,69.48
2018-12-14T14:00:21.898Z,69.67
2018-12-14T14:02:55.895Z,69.88
2018-12-14T14:05:27.624Z,68.53
2018-12-14T14:07:59.412Z,68.96
2018-12-14T14:10:32.967Z,68.34
2018-12-14T14:13:06.895Z,68.70
2018-12-14T14:15:37.675Z,68.24
2018-12-14T14:18:09.009Z,69.30
2018-12-14T14:20:43.310Z,68.90
2018-12-14T14:23:15.088Z,69.17
2018-12-14T14:25:48.864Z,68.83
2018-12-14T14:28:22.403Z,69.83
2018-12-14T14:30:53.980Z,70.45
2018-12-14T14:33:26.004Z,69.55
2018-12-14T14:36:00.050Z,69.41
2018-12-14T14:38:33.555Z,69.90
2018-12-14T14:41:05.142Z,68.00
2018-12-14T14:43:39.002Z,68.11
2018-12-14T14:46:12.953Z,68.63
2018-12-14T14:48:47.142Z,68.63
2018-12-14T14:51:21.416Z,69.40
2018-12-14T14:53:54.749Z,68.96
2018-12-14T14:56:26.358Z,68.98
2018-12-14T14:59:01.567Z,68.92
2018-12-14T15:01:32.976Z,69.40
2018-12-14T15:04:06.591Z,68.78
2018-12-14T15:06:40.861Z,69.18
2018-12-14T15:09:12.928Z,68.63
2018-12-14T15:11:44.463Z,68.27
2018-12-14T15:14:17.914Z,68.35
2018-12-14T15:16:52.109Z,68.52
2018-12-14T15:19:26.414Z,68.92
2018-12-14T15:22:04.257Z,69.36
2018-12-14T15:24:35.107Z,70.18
2018-12-14T15:27:06.481Z,70.07
2018-12-14T15:29:37.969Z,69.94
2018-12-14T15:32:09.096Z,69.20
2018-12-14T15:34:42.192Z,69.80
2018-12-14T15:37:15.778Z,69.84
2018-12-14T15:39:47.619Z,69.69
2018-12-14T15:42:21.490Z,69.85
2018-12-14T15:44:52.930Z,67.76
2018-12-14T15:47:23.815Z,68.92
2018-12-14T15:49:54.793Z,69.33
2018-12-14T15:52:25.995Z,70.14
2018-12-14T15:54:56.561Z,69.98
2018-12-14T15:57:27.650Z,70.41
2018-12-14T16:00:01.112Z,71.31
2018-12-14T16:02:34.363Z,70.71
2018-12-14T16:05:06.267Z,70.54
2018-12-14T16:07:37.853Z,69.79
2018-12-14T16:10:11.105Z,69.31
2018-12-14T16:12:42.025Z,68.85
2018-12-14T16:15:19.663Z,69.19
2018-12-14T16:17:48.901Z,70.17
2018-12-14T16:20:20.283Z,70.72
2018-12-14T16:22:53.558Z,70.47
2018-12-14T16:25:26.788Z,68.23
2018-12-14T16:27:57.970Z,68.25
2018-12-14T16:30:29.185Z,68.42
2018-12-14T16:33:03.057Z,69.24
2018-12-14T16:35:34.258Z,69.88
2018-12-14T16:38:07.566Z,69.71
2018-12-14T16:40:39.699Z,68.85
2018-12-14T16:43:11.063Z,68.26
2018-12-14T16:45:42.205Z,68.60
2018-12-14T16:48:15.325Z,67.75
2018-12-14T16:50:50.454Z,68.06
2018-12-14T16:53:23.396Z,68.97
2018-12-14T16:55:56.755Z,69.19
2018-12-14T16:58:28.211Z,69.82
2018-12-14T17:01:03.759Z,69.21
2018-12-14T17:03:35.199Z,69.20
2018-12-14T17:06:06.432Z,68.90
2018-12-14T17:08:37.770Z,69.26
2018-12-14T17:11:09.152Z,69.51
2018-12-14T17:13:40.051Z,69.80
2018-12-14T17:16:17.426Z,70.13
2018-12-14T17:18:49.041Z,69.36
2018-12-14T17:21:19.980Z,69.18
2018-12-14T17:23:50.661Z,69.26
2018-12-14T17:26:21.826Z,69.08
2018-12-14T17:28:55.145Z,68.94
2018-12-14T17:31:26.767Z,68.58
2018-12-14T17:33:59.897Z,69.04
2018-12-14T17:36:30.849Z,69.63
2018-12-14T17:39:04.722Z,69.82
2018-12-14T17:41:38.691Z,69.26
2018-12-14T17:44:11.901Z,68.61
2018-12-14T17:46:49.316Z,69.67
2018-12-14T17:49:28.010Z,70.13
2018-12-14T17:51:59.727Z,70.28
2018-12-14T17:54:32.885Z,70.38
2018-12-14T17:57:04.784Z,70.79
2018-12-14T17:59:36.191Z,70.73
2018-12-14T18:02:09.534Z,71.24
2018-12-14T18:04:46.495Z,70.94
2018-12-14T18:07:19.648Z,70.34
2018-12-14T18:10:01.751Z,70.54
2018-12-14T18:12:33.403Z,70.57
2018-12-14T18:15:07.040Z,70.51
2018-12-14T18:17:41.070Z,69.65
2018-12-14T18:20:12.056Z,69.17
2018-12-14T18:22:46.106Z,69.90
2018-12-14T18:25:22.361Z,68.53
2018-12-14T18:27:55.889Z,68.44
2018-12-14T18:30:27.714Z,68.85
2018-12-14T18:33:01.677Z,69.65
2018-12-14T18:35:34.967Z,70.38
2018-12-14T18:38:10.859Z,70.62
2018-12-14T18:40:43.837Z,70.89
2018-12-14T18:43:19.939Z,71.75
2018-12-14T18:45:53.398Z,71.97
2018-12-14T18:48:24.660Z,71.59
2018-12-14T18:50:57.813Z,71.15
2018-12-14T18:53:30.940Z,70.30
2018-12-14T18:56:02.840Z,70.91
2018-12-14T18:58:35.955Z,70.67
2018-12-14T19:01:06.866Z,70.75
2018-12-14T19:03:41.148Z,71.15
2018-12-14T19:06:23.653Z,71.01
2018-12-14T19:08:59.015Z,70.89
2018-12-14T19:11:31.494Z,71.23
2018-12-14T19:14:04.784Z,71.81
2018-12-14T19:16:36.291Z,71.13
2018-12-14T19:19:11.416Z,71.84
2018-12-14T19:21:48.861Z,71.57
2018-12-14T19:29:22.936Z,71.03
2018-12-14T19:31:53.725Z,70.96
2018-12-14T19:34:31.588Z,71.29
2018-12-14T19:39:50.665Z,70.72
2018-12-14T19:42:22.723Z,69.94
2018-12-14T19:44:56.232Z,69.64
2018-12-14T19:47:33.552Z,68.50
2018-12-14T19:50:05.755Z,67.46
2018-12-14T19:52:41.991Z,67.07
2018-12-14T19:55:28.567Z,66.76
2018-12-14T19:58:00.164Z,66.85
2018-12-14T20:00:33.604Z,67.09
2018-12-14T20:03:05.043Z,67.75
2018-12-14T20:05:35.868Z,67.92
2018-12-14T20:08:07.556Z,68.33
2018-12-14T20:10:39.340Z,68.28
2018-12-14T20:13:12.725Z,68.29
2018-12-14T20:15:44.081Z,68.64
2018-12-14T20:18:15.082Z,68.74
2018-12-14T20:20:48.013Z,69.31
2018-12-14T20:23:19.000Z,69.80
2018-12-14T20:25:52.223Z,68.82
2018-12-14T20:28:24.882Z,68.57
2018-12-14T20:30:59.005Z,68.19
2018-12-14T20:33:32.272Z,67.67
2018-12-14T20:36:03.072Z,67.02
2018-12-14T20:38:33.711Z,66.58
2018-12-14T20:41:04.880Z,65.77
2018-12-14T20:43:35.725Z,66.79
2018-12-14T20:46:09.179Z,65.87
2018-12-14T20:48:39.862Z,65.97
2018-12-14T20:51:10.953Z,66.60
2018-12-14T20:53:44.479Z,66.15
2018-12-14T20:56:15.867Z,65.78
2018-12-14T20:58:46.715Z,65.11
2018-12-14T21:01:20.642Z,65.28
2018-12-14T21:03:54.331Z,65.39
2018-12-14T21:06:25.828Z,65.71
2018-12-14T21:08:59.178Z,66.39
2018-12-14T21:11:30.604Z,66.13
2018-12-14T21:14:04.230Z,66.29
2018-12-14T21:16:35.618Z,66.69
2018-12-14T21:19:07.037Z,67.00
2018-12-14T21:21:38.090Z,66.07
2018-12-14T21:24:09.759Z,66.13
2018-12-14T21:26:43.118Z,65.71
2018-12-14T21:29:16.152Z,65.97
2018-12-14T21:31:47.572Z,66.40
2018-12-14T21:34:21.060Z,65.24
2018-12-14T21:36:54.053Z,65.52
2018-12-14T21:39:25.647Z,65.92
2018-12-14T21:41:59.323Z,65.70
2018-12-14T21:44:36.425Z,65.55
2018-12-14T21:47:09.632Z,65.38
2018-12-14T21:49:43.483Z,65.49
2018-12-14T21:52:21.743Z,65.67
2018-12-14T21:54:56.595Z,66.51
2018-12-14T21:57:30.414Z,65.82
2018-12-14T22:00:02.186Z,65.83
2018-12-14T22:02:33.765Z,64.27
2018-12-14T22:05:11.093Z,64.71
2018-12-14T22:07:41.916Z,65.42
2018-12-14T22:10:15.590Z,64.74
2018-12-14T22:12:48.544Z,64.21
2018-12-14T22:15:22.470Z,64.46
2018-12-14T22:17:54.262Z,64.04
2018-12-14T22:20:26.701Z,63.98
2018-12-14T22:23:08.770Z,64.98
2018-12-14T22:25:42.437Z,64.52
2018-12-14T22:28:13.988Z,64.56
2018-12-14T22:30:49.519Z,64.30
2018-12-14T22:33:36.460Z,65.01
2018-12-14T22:36:08.195Z,64.57
2018-12-14T22:38:40.538Z,64.61
2018-12-14T22:41:12.152Z,64.24
2018-12-14T22:43:43.701Z,64.55
2018-12-14T22:46:16.677Z,64.89
2018-12-14T22:48:48.251Z,64.88
2018-12-14T22:51:21.488Z,64.85
2018-12-14T22:53:52.944Z,64.97
2018-12-14T22:56:28.242Z,63.33
2018-12-14T22:59:03.829Z,63.29
2018-12-14T23:01:36.945Z,63.76
2018-12-14T23:04:10.147Z,64.20
2018-12-14T23:06:41.362Z,64.33
2018-12-14T23:09:12.434Z,64.70
2018-12-14T23:11:45.747Z,64.08
2018-12-14T23:14:19.559Z,64.37
2018-12-14T23:16:52.391Z,63.51
2018-12-14T23:19:26.445Z,63.49
2018-12-14T23:21:57.913Z,63.02
2018-12-14T23:24:31.154Z,62.69
2018-12-14T23:27:04.807Z,63.08
2018-12-14T23:29:36.158Z,63.09
2018-12-14T23:32:07.011Z,63.18
2018-12-14T23:34:40.129Z,63.25
2018-12-14T23:37:14.079Z,63.64
2018-12-14T23:39:44.932Z,64.05
2018-12-14T23:42:18.393Z,63.24
2018-12-14T23:44:49.157Z,63.45
2018-12-14T23:47:20.094Z,63.23
2018-12-14T23:49:51.245Z,62.37
2018-12-14T23:52:22.001Z,62.69
2018-12-14T23:54:55.311Z,62.44
2018-12-14T23:57:32.393Z,62.99
